Fort Klamath, OR

2:38 AM PDT on March 28, 2015 (GMT -0700)
Klamath Agency on Wood River Canal | | Change Station
CLOSE
Current Station
Personal Weather Station
Location: Chiloquin, OR
Elevation: 4170 ft
Nearby Weather Stations

Elev 4170 ft 42.58 °N, 121.93 °W | Updated 38 minutes ago

Mostly Cloudy
Mostly Cloudy
40.0 °F
Feels Like 40 °F
N
1.0
Wind Variable Wind from WSW
Gusts 8.0 mph

Today
High -- | Low -- °F
--% Chance of Precip.
Yesterday
High -- | Low -- °F
Precip. -- in
6:57 AM 7:29 PM
First Quarter, 61% visible
Pressure 30.20 in
Visibility 10.0 miles
Clouds Mostly Cloudy 3100 ft
Overcast 4200 ft
Windchill 40 °F
Dew Point 35 °F
Humidity 82%
Rainfall 0.00 in
Snow Depth Not available.
UV 0 out of 12
Pollen 9.70 out of 12
Air Quality Not available.
Flu Activity Not available.
METAR KLMT 280853Z AUTO 30015G23KT 10SM BKN031 OVC042 05/M01 A3026 RMK AO2 PK WND 29028/0802 SLP226 T00501006 53028

More Conditions Fewer Conditions

Pressure 30.20 in
Visibility 10.0 miles
Clouds Mostly Cloudy 3100 ft
Overcast 4200 ft
Windchill 40 °F
Dew Point 35 °F
Humidity 82%
Rainfall 0.00 in
Snow Depth Not available.
UV 0 out of 12
Pollen 9.70 out of 12
Air Quality Not available.
Flu Activity Not available.
METAR KLMT 280853Z AUTO 30015G23KT 10SM BKN031 OVC042 05/M01 A3026 RMK AO2 PK WND 29028/0802 SLP226 T00501006 53028

More Conditions Fewer Conditions

10-Day Weather Forecast

Almanac

Astronomy

Mar. 28, 2015 Rise Set
Actual Time
Civil Twilight
Nautical Twilight
Astronomical Twilight
Moon
Length of Visible Light
Length of Day
Tomorrow will be .
, % of the Moon is Illuminated

Today's Extremes

State Highs State Lows

Community

WunderPhotos

Upload Photos

1,808,939 photos uploaded!

WunderBlogs® & News

Nearby

Air Quality

  Air Quality AQ Index Pollutant
Not available.

Snow Depth

Station Depth Elevation

Earthquake Activity

City Distance Mag. Time & Date
Minimum magnitude displayed is 2.5.

Coastal Water Temperatures

Place Temperature

Stations

Nearby Weather Stations

Station Location Temp. Windchill Dew Point Humidity Wind Precip. Elev Updated Type